Portada
METAR-TAF:

METAR-TAF

Aeropuertos :

Mont-De-Marsan, Francia

latitud: 43-55N, longitud: 000-30W, altitud: 62 m

Observación

El informe se hizo hace 31 minutos, a las 17:00 UTC
Viento 6 kt del noroeste, variando entre oeste-noroeste y norte
Temperatura 20°C
Humedad 64%
Presión 1027 hPa
Visibilidad 10 km o más
sin nubes por debajo de 1500 m y sin presencia de cumulonimbus.

METAR: LFBM 261700Z AUTO 32006KT 290V360 CAVOK 20/13 Q1027 NOSIG

Hora: 19:31 (17:31 UTC)

Pronóstico

El informe se hizo hace 3 horas y 31 minutos, a las 14:00 UTC
Pronóstico válido del 26 a las 15 UTC al 27 a las 15 UTC
Viento 5 kt del noroeste
Visibilidad 10 km o más
Cielo nuboso a una altura de 4000 ft
Temporalmente
del 27 a las 03 UTC al 27 a las 07 UTC
Nubes dispersas a una altura de 600 ft

TAF: LFBM 261400Z 2615/2715 32005KT 9999 BKN040 TEMPO 2703/2707 SCT006

Observaciones y pronósticos meteorológicos de más de 4000 aeropuertos (mensajes METAR y TAF).

Los puntos amarillos y rojos representan las estaciones disponibles.

Ponga el ratón en el punto deseado para ver el nombre de la estación.

Haga clic para ver las observaciones y los pronósticos meteorológicos.

Para cambiar el mapa : haga clic en los botones verdes con una cruz de color negro para hacer un zoom, en el botón verde con un guión para alejar o en las flechas verdes para mapas adyacentes.


METAR-TAF: